sensor_id;sensor_type;location;lat;lon;timestamp;P1;durP1;ratioP1;P2;durP2;ratioP2
51612;SDS011;37694;51.748;14.326;2023-08-06T00:00:06;4.10;;;3.22;;
51612;SDS011;37694;51.748;14.326;2023-08-06T00:02:33;6.20;;;3.90;;
51612;SDS011;37694;51.748;14.326;2023-08-06T00:04:59;8.60;;;3.75;;
51612;SDS011;37694;51.748;14.326;2023-08-06T00:07:24;12.20;;;3.63;;
51612;SDS011;37694;51.748;14.326;2023-08-06T00:09:50;8.55;;;4.05;;
51612;SDS011;37694;51.748;14.326;2023-08-06T00:12:16;9.32;;;3.78;;
51612;SDS011;37694;51.748;14.326;2023-08-06T00:14:41;4.50;;;3.55;;
51612;SDS011;37694;51.748;14.326;2023-08-06T00:17:07;5.10;;;3.75;;
51612;SDS011;37694;51.748;14.326;2023-08-06T00:19:33;6.88;;;3.90;;
51612;SDS011;37694;51.748;14.326;2023-08-06T00:21:59;8.98;;;3.97;;
51612;SDS011;37694;51.748;14.326;2023-08-06T00:24:24;8.65;;;4.13;;
51612;SDS011;37694;51.748;14.326;2023-08-06T00:26:50;4.32;;;3.88;;
51612;SDS011;37694;51.748;14.326;2023-08-06T00:29:16;4.97;;;3.50;;
51612;SDS011;37694;51.748;14.326;2023-08-06T00:31:41;7.07;;;4.10;;
51612;SDS011;37694;51.748;14.326;2023-08-06T00:34:07;5.65;;;3.80;;
51612;SDS011;37694;51.748;14.326;2023-08-06T00:36:33;5.63;;;3.80;;
51612;SDS011;37694;51.748;14.326;2023-08-06T00:38:58;5.28;;;3.50;;
51612;SDS011;37694;51.748;14.326;2023-08-06T00:41:24;4.90;;;3.25;;
51612;SDS011;37694;51.748;14.326;2023-08-06T00:43:50;5.28;;;3.50;;
51612;SDS011;37694;51.748;14.326;2023-08-06T00:46:16;5.78;;;3.45;;
51612;SDS011;37694;51.748;14.326;2023-08-06T00:48:42;5.70;;;3.60;;
51612;SDS011;37694;51.748;14.326;2023-08-06T00:51:08;8.00;;;3.40;;
51612;SDS011;37694;51.748;14.326;2023-08-06T00:53:35;13.02;;;3.55;;
51612;SDS011;37694;51.748;14.326;2023-08-06T00:56:03;5.82;;;3.47;;
51612;SDS011;37694;51.748;14.326;2023-08-06T00:58:28;3.92;;;3.55;;
51612;SDS011;37694;51.748;14.326;2023-08-06T01:00:55;4.47;;;3.00;;
51612;SDS011;37694;51.748;14.326;2023-08-06T01:03:20;3.83;;;3.22;;
51612;SDS011;37694;51.748;14.326;2023-08-06T01:05:46;5.00;;;3.55;;
51612;SDS011;37694;51.748;14.326;2023-08-06T01:13:42;5.00;;;3.67;;
51612;SDS011;37694;51.748;14.326;2023-08-06T01:16:18;4.20;;;3.35;;
51612;SDS011;37694;51.748;14.326;2023-08-06T01:18:44;4.60;;;3.67;;
51612;SDS011;37694;51.748;14.326;2023-08-06T01:21:14;4.75;;;2.95;;
51612;SDS011;37694;51.748;14.326;2023-08-06T01:23:41;5.18;;;2.83;;
51612;SDS011;37694;51.748;14.326;2023-08-06T01:28:37;4.65;;;3.33;;
51612;SDS011;37694;51.748;14.326;2023-08-06T01:31:07;5.55;;;3.40;;
51612;SDS011;37694;51.748;14.326;2023-08-06T01:33:40;5.25;;;3.13;;
51612;SDS011;37694;51.748;14.326;2023-08-06T01:36:10;3.72;;;2.75;;
51612;SDS011;37694;51.748;14.326;2023-08-06T01:38:36;5.30;;;3.33;;
51612;SDS011;37694;51.748;14.326;2023-08-06T01:41:01;5.85;;;3.30;;
51612;SDS011;37694;51.748;14.326;2023-08-06T01:43:27;5.72;;;3.35;;
51612;SDS011;37694;51.748;14.326;2023-08-06T01:45:53;6.75;;;3.00;;
51612;SDS011;37694;51.748;14.326;2023-08-06T01:48:18;5.47;;;2.80;;
51612;SDS011;37694;51.748;14.326;2023-08-06T01:50:44;3.47;;;3.17;;
51612;SDS011;37694;51.748;14.326;2023-08-06T01:53:10;4.10;;;3.00;;
51612;SDS011;37694;51.748;14.326;2023-08-06T01:55:36;3.88;;;3.03;;
51612;SDS011;37694;51.748;14.326;2023-08-06T01:58:01;3.17;;;2.88;;
51612;SDS011;37694;51.748;14.326;2023-08-06T02:00:27;4.30;;;2.55;;
51612;SDS011;37694;51.748;14.326;2023-08-06T02:02:53;7.00;;;3.42;;
51612;SDS011;37694;51.748;14.326;2023-08-06T02:05:19;6.43;;;3.03;;
51612;SDS011;37694;51.748;14.326;2023-08-06T02:07:45;4.07;;;2.65;;
51612;SDS011;37694;51.748;14.326;2023-08-06T02:10:11;7.55;;;2.97;;
51612;SDS011;37694;51.748;14.326;2023-08-06T02:12:36;5.72;;;2.72;;
51612;SDS011;37694;51.748;14.326;2023-08-06T02:15:02;3.13;;;2.88;;
51612;SDS011;37694;51.748;14.326;2023-08-06T02:17:28;4.88;;;2.92;;
51612;SDS011;37694;51.748;14.326;2023-08-06T02:19:54;4.05;;;2.50;;
51612;SDS011;37694;51.748;14.326;2023-08-06T02:22:20;5.13;;;3.40;;
51612;SDS011;37694;51.748;14.326;2023-08-06T02:24:45;3.38;;;2.88;;
51612;SDS011;37694;51.748;14.326;2023-08-06T02:27:11;3.67;;;2.67;;
51612;SDS011;37694;51.748;14.326;2023-08-06T02:29:37;3.70;;;2.65;;
51612;SDS011;37694;51.748;14.326;2023-08-06T02:32:05;3.85;;;2.85;;
51612;SDS011;37694;51.748;14.326;2023-08-06T02:34:31;3.00;;;2.63;;
51612;SDS011;37694;51.748;14.326;2023-08-06T02:36:56;4.05;;;2.50;;
51612;SDS011;37694;51.748;14.326;2023-08-06T02:39:22;3.00;;;2.70;;
51612;SDS011;37694;51.748;14.326;2023-08-06T02:41:48;4.63;;;2.70;;
51612;SDS011;37694;51.748;14.326;2023-08-06T02:44:13;3.05;;;2.75;;
51612;SDS011;37694;51.748;14.326;2023-08-06T02:46:39;4.55;;;2.40;;
51612;SDS011;37694;51.748;14.326;2023-08-06T02:49:06;5.68;;;2.53;;
51612;SDS011;37694;51.748;14.326;2023-08-06T02:51:31;4.18;;;2.60;;
51612;SDS011;37694;51.748;14.326;2023-08-06T02:53:57;3.97;;;2.83;;
51612;SDS011;37694;51.748;14.326;2023-08-06T02:56:22;5.15;;;2.20;;
51612;SDS011;37694;51.748;14.326;2023-08-06T02:58:48;3.00;;;2.50;;
51612;SDS011;37694;51.748;14.326;2023-08-06T03:01:14;3.30;;;2.95;;
51612;SDS011;37694;51.748;14.326;2023-08-06T03:03:39;5.13;;;2.35;;
51612;SDS011;37694;51.748;14.326;2023-08-06T03:06:05;2.83;;;2.63;;
51612;SDS011;37694;51.748;14.326;2023-08-06T03:08:31;2.38;;;2.22;;
51612;SDS011;37694;51.748;14.326;2023-08-06T03:10:56;3.38;;;2.70;;
51612;SDS011;37694;51.748;14.326;2023-08-06T03:13:22;3.30;;;2.63;;
51612;SDS011;37694;51.748;14.326;2023-08-06T03:15:52;3.72;;;2.58;;
51612;SDS011;37694;51.748;14.326;2023-08-06T03:18:22;4.03;;;2.75;;
51612;SDS011;37694;51.748;14.326;2023-08-06T03:20:48;2.63;;;2.42;;
51612;SDS011;37694;51.748;14.326;2023-08-06T03:23:14;2.53;;;2.33;;
51612;SDS011;37694;51.748;14.326;2023-08-06T03:25:40;3.83;;;2.47;;
51612;SDS011;37694;51.748;14.326;2023-08-06T03:28:05;2.72;;;2.42;;
51612;SDS011;37694;51.748;14.326;2023-08-06T03:30:31;2.90;;;2.40;;
51612;SDS011;37694;51.748;14.326;2023-08-06T03:32:57;5.35;;;2.67;;
51612;SDS011;37694;51.748;14.326;2023-08-06T03:35:22;6.78;;;2.78;;
51612;SDS011;37694;51.748;14.326;2023-08-06T03:37:48;5.72;;;3.38;;
51612;SDS011;37694;51.748;14.326;2023-08-06T03:40:14;6.07;;;2.40;;
51612;SDS011;37694;51.748;14.326;2023-08-06T03:42:40;2.40;;;2.13;;
51612;SDS011;37694;51.748;14.326;2023-08-06T03:45:06;10.85;;;2.90;;
51612;SDS011;37694;51.748;14.326;2023-08-06T03:47:32;8.52;;;2.38;;
51612;SDS011;37694;51.748;14.326;2023-08-06T03:49:58;3.35;;;2.17;;
51612;SDS011;37694;51.748;14.326;2023-08-06T03:52:24;3.90;;;2.60;;
51612;SDS011;37694;51.748;14.326;2023-08-06T03:54:49;3.80;;;2.40;;
51612;SDS011;37694;51.748;14.326;2023-08-06T03:57:15;3.28;;;2.53;;
51612;SDS011;37694;51.748;14.326;2023-08-06T03:59:41;8.15;;;2.78;;
51612;SDS011;37694;51.748;14.326;2023-08-06T04:02:06;2.33;;;2.17;;
51612;SDS011;37694;51.748;14.326;2023-08-06T04:04:32;3.58;;;2.28;;
51612;SDS011;37694;51.748;14.326;2023-08-06T04:06:58;3.17;;;2.50;;
51612;SDS011;37694;51.748;14.326;2023-08-06T04:09:23;4.00;;;2.47;;
51612;SDS011;37694;51.748;14.326;2023-08-06T04:11:49;2.85;;;2.40;;
51612;SDS011;37694;51.748;14.326;2023-08-06T04:14:15;3.35;;;2.63;;
51612;SDS011;37694;51.748;14.326;2023-08-06T04:16:40;3.33;;;2.22;;
51612;SDS011;37694;51.748;14.326;2023-08-06T04:19:06;3.63;;;2.60;;
51612;SDS011;37694;51.748;14.326;2023-08-06T04:21:32;4.03;;;2.65;;
51612;SDS011;37694;51.748;14.326;2023-08-06T04:23:57;3.85;;;2.50;;
51612;SDS011;37694;51.748;14.326;2023-08-06T04:26:23;2.67;;;2.40;;
51612;SDS011;37694;51.748;14.326;2023-08-06T04:28:48;4.75;;;2.58;;
51612;SDS011;37694;51.748;14.326;2023-08-06T04:31:14;4.90;;;2.60;;
51612;SDS011;37694;51.748;14.326;2023-08-06T04:33:40;4.97;;;2.70;;
51612;SDS011;37694;51.748;14.326;2023-08-06T04:36:06;5.07;;;2.65;;
51612;SDS011;37694;51.748;14.326;2023-08-06T04:38:32;6.13;;;2.33;;
51612;SDS011;37694;51.748;14.326;2023-08-06T04:40:57;4.25;;;2.58;;
51612;SDS011;37694;51.748;14.326;2023-08-06T04:43:23;3.05;;;2.30;;
51612;SDS011;37694;51.748;14.326;2023-08-06T04:45:50;2.53;;;2.33;;
51612;SDS011;37694;51.748;14.326;2023-08-06T04:48:18;3.53;;;2.75;;
51612;SDS011;37694;51.748;14.326;2023-08-06T04:50:47;3.22;;;2.60;;
51612;SDS011;37694;51.748;14.326;2023-08-06T04:53:14;2.47;;;2.28;;
51612;SDS011;37694;51.748;14.326;2023-08-06T04:55:40;2.75;;;2.22;;
51612;SDS011;37694;51.748;14.326;2023-08-06T04:58:06;4.07;;;2.35;;
51612;SDS011;37694;51.748;14.326;2023-08-06T05:00:34;3.83;;;2.60;;
51612;SDS011;37694;51.748;14.326;2023-08-06T05:02:59;3.85;;;2.03;;
51612;SDS011;37694;51.748;14.326;2023-08-06T05:05:26;2.50;;;2.22;;
51612;SDS011;37694;51.748;14.326;2023-08-06T05:07:53;5.15;;;2.42;;
51612;SDS011;37694;51.748;14.326;2023-08-06T05:10:21;3.35;;;2.60;;
51612;SDS011;37694;51.748;14.326;2023-08-06T05:12:49;5.85;;;2.22;;
51612;SDS011;37694;51.748;14.326;2023-08-06T05:15:15;2.15;;;2.03;;
51612;SDS011;37694;51.748;14.326;2023-08-06T05:17:40;2.60;;;2.40;;
51612;SDS011;37694;51.748;14.326;2023-08-06T05:20:06;3.55;;;2.50;;
51612;SDS011;37694;51.748;14.326;2023-08-06T05:22:32;2.33;;;2.13;;
51612;SDS011;37694;51.748;14.326;2023-08-06T05:24:57;2.95;;;2.40;;
51612;SDS011;37694;51.748;14.326;2023-08-06T05:27:23;4.18;;;2.00;;
51612;SDS011;37694;51.748;14.326;2023-08-06T05:29:49;3.05;;;2.28;;
51612;SDS011;37694;51.748;14.326;2023-08-06T05:32:14;3.42;;;2.17;;
51612;SDS011;37694;51.748;14.326;2023-08-06T05:34:40;2.38;;;2.28;;
51612;SDS011;37694;51.748;14.326;2023-08-06T05:37:06;6.40;;;2.40;;
51612;SDS011;37694;51.748;14.326;2023-08-06T05:39:32;4.50;;;2.30;;
51612;SDS011;37694;51.748;14.326;2023-08-06T05:41:58;3.88;;;2.20;;
51612;SDS011;37694;51.748;14.326;2023-08-06T05:44:23;4.20;;;2.28;;
51612;SDS011;37694;51.748;14.326;2023-08-06T05:46:49;7.00;;;2.13;;
51612;SDS011;37694;51.748;14.326;2023-08-06T05:49:15;4.78;;;2.25;;
51612;SDS011;37694;51.748;14.326;2023-08-06T05:51:41;2.20;;;2.03;;
51612;SDS011;37694;51.748;14.326;2023-08-06T05:54:07;3.83;;;2.65;;
51612;SDS011;37694;51.748;14.326;2023-08-06T05:56:33;4.18;;;2.40;;
51612;SDS011;37694;51.748;14.326;2023-08-06T05:58:58;5.03;;;2.42;;
51612;SDS011;37694;51.748;14.326;2023-08-06T06:01:24;3.67;;;2.10;;
51612;SDS011;37694;51.748;14.326;2023-08-06T06:03:50;3.72;;;2.20;;
51612;SDS011;37694;51.748;14.326;2023-08-06T06:06:15;2.42;;;2.22;;
51612;SDS011;37694;51.748;14.326;2023-08-06T06:08:42;5.80;;;2.10;;
51612;SDS011;37694;51.748;14.326;2023-08-06T06:11:08;3.13;;;2.17;;
51612;SDS011;37694;51.748;14.326;2023-08-06T06:13:33;3.13;;;2.35;;
51612;SDS011;37694;51.748;14.326;2023-08-06T06:15:59;3.60;;;2.50;;
51612;SDS011;37694;51.748;14.326;2023-08-06T06:18:24;3.47;;;2.10;;
51612;SDS011;37694;51.748;14.326;2023-08-06T06:20:50;2.42;;;2.25;;
51612;SDS011;37694;51.748;14.326;2023-08-06T06:23:16;5.00;;;2.38;;
51612;SDS011;37694;51.748;14.326;2023-08-06T06:25:42;5.07;;;1.92;;
51612;SDS011;37694;51.748;14.326;2023-08-06T06:28:08;2.70;;;2.50;;
51612;SDS011;37694;51.748;14.326;2023-08-06T06:30:34;3.17;;;2.38;;
51612;SDS011;37694;51.748;14.326;2023-08-06T06:33:00;5.10;;;2.45;;
51612;SDS011;37694;51.748;14.326;2023-08-06T06:35:25;4.95;;;2.50;;
51612;SDS011;37694;51.748;14.326;2023-08-06T06:37:51;13.25;;;3.10;;
51612;SDS011;37694;51.748;14.326;2023-08-06T06:40:17;2.10;;;2.00;;
51612;SDS011;37694;51.748;14.326;2023-08-06T06:42:42;3.92;;;2.50;;
51612;SDS011;37694;51.748;14.326;2023-08-06T06:45:08;2.45;;;2.25;;
51612;SDS011;37694;51.748;14.326;2023-08-06T06:47:34;2.55;;;2.35;;
51612;SDS011;37694;51.748;14.326;2023-08-06T06:50:00;4.22;;;1.98;;
51612;SDS011;37694;51.748;14.326;2023-08-06T06:52:26;8.13;;;2.60;;
51612;SDS011;37694;51.748;14.326;2023-08-06T06:54:51;5.63;;;2.92;;
51612;SDS011;37694;51.748;14.326;2023-08-06T06:57:17;7.28;;;2.75;;
51612;SDS011;37694;51.748;14.326;2023-08-06T06:59:42;7.03;;;2.10;;
51612;SDS011;37694;51.748;14.326;2023-08-06T07:02:08;3.20;;;2.40;;
51612;SDS011;37694;51.748;14.326;2023-08-06T07:04:34;4.97;;;2.33;;
51612;SDS011;37694;51.748;14.326;2023-08-06T07:06:59;19.25;;;2.63;;
51612;SDS011;37694;51.748;14.326;2023-08-06T07:09:25;3.40;;;2.20;;
51612;SDS011;37694;51.748;14.326;2023-08-06T07:11:51;11.52;;;2.97;;
51612;SDS011;37694;51.748;14.326;2023-08-06T07:14:17;5.03;;;3.50;;
51612;SDS011;37694;51.748;14.326;2023-08-06T07:16:43;5.55;;;3.50;;
51612;SDS011;37694;51.748;14.326;2023-08-06T07:19:08;5.88;;;2.90;;
51612;SDS011;37694;51.748;14.326;2023-08-06T07:21:34;8.80;;;2.60;;
51612;SDS011;37694;51.748;14.326;2023-08-06T07:24:00;7.68;;;2.75;;
51612;SDS011;37694;51.748;14.326;2023-08-06T07:26:27;6.10;;;2.92;;
51612;SDS011;37694;51.748;14.326;2023-08-06T07:28:52;6.35;;;2.50;;
51612;SDS011;37694;51.748;14.326;2023-08-06T07:31:18;11.10;;;3.03;;
51612;SDS011;37694;51.748;14.326;2023-08-06T07:33:44;10.35;;;2.47;;
51612;SDS011;37694;51.748;14.326;2023-08-06T07:36:13;7.38;;;2.85;;
51612;SDS011;37694;51.748;14.326;2023-08-06T07:38:39;8.80;;;2.67;;
51612;SDS011;37694;51.748;14.326;2023-08-06T07:41:05;8.38;;;2.78;;
51612;SDS011;37694;51.748;14.326;2023-08-06T07:43:31;6.15;;;2.63;;
51612;SDS011;37694;51.748;14.326;2023-08-06T07:46:00;9.85;;;2.78;;
51612;SDS011;37694;51.748;14.326;2023-08-06T07:48:26;7.55;;;2.72;;
51612;SDS011;37694;51.748;14.326;2023-08-06T07:50:55;12.65;;;3.05;;
51612;SDS011;37694;51.748;14.326;2023-08-06T07:53:21;8.90;;;3.00;;
51612;SDS011;37694;51.748;14.326;2023-08-06T07:55:50;8.02;;;2.60;;
51612;SDS011;37694;51.748;14.326;2023-08-06T07:58:17;6.30;;;2.90;;
51612;SDS011;37694;51.748;14.326;2023-08-06T08:00:43;12.07;;;2.50;;
51612;SDS011;37694;51.748;14.326;2023-08-06T08:03:11;5.50;;;2.70;;
51612;SDS011;37694;51.748;14.326;2023-08-06T08:05:40;3.50;;;2.50;;
51612;SDS011;37694;51.748;14.326;2023-08-06T08:08:06;8.07;;;3.03;;
51612;SDS011;37694;51.748;14.326;2023-08-06T08:10:32;4.90;;;2.60;;
51612;SDS011;37694;51.748;14.326;2023-08-06T08:12:59;5.90;;;2.30;;
51612;SDS011;37694;51.748;14.326;2023-08-06T08:15:29;8.05;;;3.03;;
51612;SDS011;37694;51.748;14.326;2023-08-06T08:17:57;5.65;;;2.38;;
51612;SDS011;37694;51.748;14.326;2023-08-06T08:20:23;9.52;;;2.72;;
51612;SDS011;37694;51.748;14.326;2023-08-06T08:22:49;9.35;;;2.63;;
51612;SDS011;37694;51.748;14.326;2023-08-06T08:25:15;3.67;;;2.75;;
51612;SDS011;37694;51.748;14.326;2023-08-06T08:27:41;4.05;;;2.00;;
51612;SDS011;37694;51.748;14.326;2023-08-06T08:30:07;5.85;;;2.83;;
51612;SDS011;37694;51.748;14.326;2023-08-06T08:32:33;16.77;;;3.55;;
51612;SDS011;37694;51.748;14.326;2023-08-06T08:34:59;7.05;;;2.35;;
51612;SDS011;37694;51.748;14.326;2023-08-06T08:37:24;9.68;;;3.13;;
51612;SDS011;37694;51.748;14.326;2023-08-06T08:39:50;11.15;;;2.78;;
51612;SDS011;37694;51.748;14.326;2023-08-06T08:42:17;11.50;;;2.97;;
51612;SDS011;37694;51.748;14.326;2023-08-06T08:44:43;8.20;;;2.42;;
51612;SDS011;37694;51.748;14.326;2023-08-06T08:47:10;9.27;;;2.67;;
51612;SDS011;37694;51.748;14.326;2023-08-06T08:49:36;3.20;;;2.40;;
51612;SDS011;37694;51.748;14.326;2023-08-06T08:52:03;13.77;;;2.70;;
51612;SDS011;37694;51.748;14.326;2023-08-06T08:54:38;7.57;;;2.40;;
51612;SDS011;37694;51.748;14.326;2023-08-06T08:57:04;5.57;;;2.50;;
51612;SDS011;37694;51.748;14.326;2023-08-06T08:59:31;10.43;;;3.08;;
51612;SDS011;37694;51.748;14.326;2023-08-06T09:01:58;9.55;;;2.42;;
51612;SDS011;37694;51.748;14.326;2023-08-06T09:04:26;4.70;;;2.83;;
51612;SDS011;37694;51.748;14.326;2023-08-06T09:06:56;22.20;;;3.33;;
51612;SDS011;37694;51.748;14.326;2023-08-06T09:09:31;15.45;;;3.15;;
51612;SDS011;37694;51.748;14.326;2023-08-06T09:12:00;5.60;;;2.38;;
51612;SDS011;37694;51.748;14.326;2023-08-06T09:14:27;14.13;;;2.50;;
51612;SDS011;37694;51.748;14.326;2023-08-06T09:16:53;13.13;;;3.38;;
51612;SDS011;37694;51.748;14.326;2023-08-06T09:19:20;18.35;;;4.05;;
51612;SDS011;37694;51.748;14.326;2023-08-06T09:21:45;15.05;;;3.20;;
51612;SDS011;37694;51.748;14.326;2023-08-06T09:24:14;15.15;;;3.55;;
51612;SDS011;37694;51.748;14.326;2023-08-06T09:26:41;21.10;;;3.22;;
51612;SDS011;37694;51.748;14.326;2023-08-06T09:29:08;16.98;;;3.95;;
51612;SDS011;37694;51.748;14.326;2023-08-06T09:31:41;14.55;;;3.30;;
51612;SDS011;37694;51.748;14.326;2023-08-06T09:34:18;14.93;;;3.10;;
51612;SDS011;37694;51.748;14.326;2023-08-06T09:36:48;19.23;;;3.80;;
51612;SDS011;37694;51.748;14.326;2023-08-06T09:39:16;16.92;;;3.92;;
51612;SDS011;37694;51.748;14.326;2023-08-06T09:41:43;30.73;;;3.42;;
51612;SDS011;37694;51.748;14.326;2023-08-06T09:46:51;18.92;;;3.50;;
51612;SDS011;37694;51.748;14.326;2023-08-06T09:49:17;28.48;;;3.33;;
51612;SDS011;37694;51.748;14.326;2023-08-06T09:51:44;27.77;;;3.78;;
51612;SDS011;37694;51.748;14.326;2023-08-06T09:54:14;29.65;;;4.00;;
51612;SDS011;37694;51.748;14.326;2023-08-06T09:56:41;9.98;;;4.78;;
51612;SDS011;37694;51.748;14.326;2023-08-06T09:59:08;15.02;;;7.97;;
51612;SDS011;37694;51.748;14.326;2023-08-06T10:01:34;19.48;;;9.77;;
51612;SDS011;37694;51.748;14.326;2023-08-06T10:04:01;12.50;;;7.80;;
51612;SDS011;37694;51.748;14.326;2023-08-06T10:06:29;26.00;;;5.55;;
51612;SDS011;37694;51.748;14.326;2023-08-06T10:08:55;8.50;;;4.75;;
51612;SDS011;37694;51.748;14.326;2023-08-06T10:11:24;9.10;;;3.60;;
51612;SDS011;37694;51.748;14.326;2023-08-06T10:13:53;5.15;;;3.03;;
51612;SDS011;37694;51.748;14.326;2023-08-06T10:16:23;3.35;;;3.05;;
51612;SDS011;37694;51.748;14.326;2023-08-06T10:18:49;11.65;;;3.10;;
51612;SDS011;37694;51.748;14.326;2023-08-06T10:21:16;11.57;;;2.83;;
51612;SDS011;37694;51.748;14.326;2023-08-06T10:23:42;5.85;;;2.25;;
51612;SDS011;37694;51.748;14.326;2023-08-06T10:26:08;2.75;;;2.55;;
51612;SDS011;37694;51.748;14.326;2023-08-06T10:28:37;2.50;;;2.30;;
51612;SDS011;37694;51.748;14.326;2023-08-06T10:31:04;2.63;;;2.33;;
51612;SDS011;37694;51.748;14.326;2023-08-06T10:33:43;6.55;;;2.10;;
51612;SDS011;37694;51.748;14.326;2023-08-06T10:36:13;3.63;;;2.15;;
51612;SDS011;37694;51.748;14.326;2023-08-06T10:38:49;2.58;;;2.38;;
51612;SDS011;37694;51.748;14.326;2023-08-06T10:41:36;4.03;;;3.08;;
51612;SDS011;37694;51.748;14.326;2023-08-06T10:44:08;5.30;;;2.80;;
51612;SDS011;37694;51.748;14.326;2023-08-06T10:46:34;3.08;;;2.47;;
51612;SDS011;37694;51.748;14.326;2023-08-06T10:49:00;2.60;;;2.40;;
51612;SDS011;37694;51.748;14.326;2023-08-06T10:51:26;7.18;;;3.00;;
51612;SDS011;37694;51.748;14.326;2023-08-06T10:53:53;3.95;;;2.92;;
51612;SDS011;37694;51.748;14.326;2023-08-06T10:56:19;11.95;;;3.10;;
51612;SDS011;37694;51.748;14.326;2023-08-06T10:58:51;4.82;;;2.47;;
51612;SDS011;37694;51.748;14.326;2023-08-06T11:01:19;5.78;;;2.72;;
51612;SDS011;37694;51.748;14.326;2023-08-06T11:03:46;3.55;;;2.33;;
51612;SDS011;37694;51.748;14.326;2023-08-06T11:06:21;5.43;;;2.70;;
51612;SDS011;37694;51.748;14.326;2023-08-06T11:08:49;5.95;;;2.28;;
51612;SDS011;37694;51.748;14.326;2023-08-06T11:11:16;4.40;;;2.72;;
51612;SDS011;37694;51.748;14.326;2023-08-06T11:13:43;3.22;;;2.92;;
51612;SDS011;37694;51.748;14.326;2023-08-06T11:16:11;3.05;;;2.83;;
51612;SDS011;37694;51.748;14.326;2023-08-06T11:18:42;5.38;;;3.28;;
51612;SDS011;37694;51.748;14.326;2023-08-06T11:21:07;2.30;;;2.10;;
51612;SDS011;37694;51.748;14.326;2023-08-06T11:23:34;5.07;;;2.25;;
51612;SDS011;37694;51.748;14.326;2023-08-06T11:26:00;2.20;;;2.03;;
51612;SDS011;37694;51.748;14.326;2023-08-06T11:28:26;2.10;;;1.90;;
51612;SDS011;37694;51.748;14.326;2023-08-06T11:30:52;1.77;;;1.67;;
51612;SDS011;37694;51.748;14.326;2023-08-06T11:33:23;5.65;;;2.47;;
51612;SDS011;37694;51.748;14.326;2023-08-06T11:35:56;4.05;;;1.95;;
51612;SDS011;37694;51.748;14.326;2023-08-06T11:38:29;3.15;;;1.98;;
51612;SDS011;37694;51.748;14.326;2023-08-06T11:40:55;4.47;;;2.10;;
51612;SDS011;37694;51.748;14.326;2023-08-06T11:43:21;4.93;;;1.85;;
51612;SDS011;37694;51.748;14.326;2023-08-06T11:45:48;2.38;;;1.70;;
51612;SDS011;37694;51.748;14.326;2023-08-06T11:48:18;2.63;;;1.55;;
51612;SDS011;37694;51.748;14.326;2023-08-06T11:50:44;5.28;;;2.00;;
51612;SDS011;37694;51.748;14.326;2023-08-06T11:53:12;2.80;;;2.00;;
51612;SDS011;37694;51.748;14.326;2023-08-06T11:55:41;3.53;;;1.48;;
51612;SDS011;37694;51.748;14.326;2023-08-06T11:58:08;8.05;;;1.83;;
51612;SDS011;37694;51.748;14.326;2023-08-06T12:00:36;6.55;;;1.48;;
51612;SDS011;37694;51.748;14.326;2023-08-06T12:03:04;5.72;;;1.88;;
51612;SDS011;37694;51.748;14.326;2023-08-06T12:05:30;7.25;;;1.50;;
51612;SDS011;37694;51.748;14.326;2023-08-06T12:07:58;5.45;;;1.40;;
51612;SDS011;37694;51.748;14.326;2023-08-06T12:10:26;5.72;;;1.58;;
51612;SDS011;37694;51.748;14.326;2023-08-06T12:12:53;1.67;;;1.58;;
51612;SDS011;37694;51.748;14.326;2023-08-06T12:15:20;1.98;;;1.38;;
51612;SDS011;37694;51.748;14.326;2023-08-06T12:17:46;3.15;;;1.48;;
51612;SDS011;37694;51.748;14.326;2023-08-06T12:20:12;2.08;;;1.60;;
51612;SDS011;37694;51.748;14.326;2023-08-06T12:22:38;5.32;;;1.52;;
51612;SDS011;37694;51.748;14.326;2023-08-06T12:25:10;13.35;;;1.35;;
51612;SDS011;37694;51.748;14.326;2023-08-06T12:27:40;7.45;;;2.10;;
51612;SDS011;37694;51.748;14.326;2023-08-06T12:30:07;6.38;;;1.17;;
51612;SDS011;37694;51.748;14.326;2023-08-06T12:32:33;1.70;;;1.60;;
51612;SDS011;37694;51.748;14.326;2023-08-06T12:35:00;3.28;;;1.50;;
51612;SDS011;37694;51.748;14.326;2023-08-06T12:37:26;2.53;;;1.50;;
51612;SDS011;37694;51.748;14.326;2023-08-06T12:39:52;5.60;;;1.95;;
51612;SDS011;37694;51.748;14.326;2023-08-06T12:42:18;6.20;;;2.05;;
51612;SDS011;37694;51.748;14.326;2023-08-06T12:44:44;4.38;;;2.10;;
51612;SDS011;37694;51.748;14.326;2023-08-06T12:47:09;5.25;;;1.80;;
51612;SDS011;37694;51.748;14.326;2023-08-06T12:49:35;2.33;;;2.10;;
51612;SDS011;37694;51.748;14.326;2023-08-06T12:52:01;4.82;;;1.90;;
51612;SDS011;37694;51.748;14.326;2023-08-06T12:54:29;3.15;;;2.00;;
51612;SDS011;37694;51.748;14.326;2023-08-06T12:57:00;3.80;;;1.90;;
51612;SDS011;37694;51.748;14.326;2023-08-06T12:59:27;6.82;;;1.27;;
51612;SDS011;37694;51.748;14.326;2023-08-06T13:01:52;2.42;;;1.85;;
51612;SDS011;37694;51.748;14.326;2023-08-06T13:04:18;4.57;;;2.40;;
51612;SDS011;37694;51.748;14.326;2023-08-06T13:06:43;4.05;;;1.88;;
51612;SDS011;37694;51.748;14.326;2023-08-06T13:09:09;2.03;;;1.52;;
51612;SDS011;37694;51.748;14.326;2023-08-06T13:11:35;5.43;;;1.92;;
51612;SDS011;37694;51.748;14.326;2023-08-06T13:14:06;4.13;;;2.05;;
51612;SDS011;37694;51.748;14.326;2023-08-06T13:16:37;2.88;;;2.58;;
51612;SDS011;37694;51.748;14.326;2023-08-06T13:19:04;8.65;;;2.33;;
51612;SDS011;37694;51.748;14.326;2023-08-06T13:21:32;3.60;;;2.05;;
51612;SDS011;37694;51.748;14.326;2023-08-06T13:24:00;2.53;;;2.33;;
51612;SDS011;37694;51.748;14.326;2023-08-06T13:26:31;2.97;;;2.05;;
51612;SDS011;37694;51.748;14.326;2023-08-06T13:28:57;2.25;;;2.15;;
51612;SDS011;37694;51.748;14.326;2023-08-06T13:31:23;2.08;;;1.70;;
51612;SDS011;37694;51.748;14.326;2023-08-06T13:33:50;2.45;;;2.20;;
51612;SDS011;37694;51.748;14.326;2023-08-06T13:36:16;1.85;;;1.75;;
51612;SDS011;37694;51.748;14.326;2023-08-06T13:38:42;1.70;;;1.60;;
51612;SDS011;37694;51.748;14.326;2023-08-06T13:41:07;2.25;;;2.08;;
51612;SDS011;37694;51.748;14.326;2023-08-06T13:43:33;2.03;;;1.80;;
51612;SDS011;37694;51.748;14.326;2023-08-06T13:45:59;4.15;;;2.22;;
51612;SDS011;37694;51.748;14.326;2023-08-06T13:48:24;2.20;;;2.00;;
51612;SDS011;37694;51.748;14.326;2023-08-06T13:50:50;2.55;;;2.20;;
51612;SDS011;37694;51.748;14.326;2023-08-06T13:53:16;2.95;;;2.67;;
51612;SDS011;37694;51.748;14.326;2023-08-06T13:55:41;4.38;;;2.13;;
51612;SDS011;37694;51.748;14.326;2023-08-06T13:58:07;2.38;;;2.17;;
51612;SDS011;37694;51.748;14.326;2023-08-06T14:00:35;2.92;;;2.72;;
51612;SDS011;37694;51.748;14.326;2023-08-06T14:03:01;2.50;;;2.30;;
51612;SDS011;37694;51.748;14.326;2023-08-06T14:05:27;6.65;;;2.22;;
51612;SDS011;37694;51.748;14.326;2023-08-06T14:07:53;2.88;;;2.25;;
51612;SDS011;37694;51.748;14.326;2023-08-06T14:10:18;2.88;;;2.17;;
51612;SDS011;37694;51.748;14.326;2023-08-06T14:12:44;2.55;;;2.38;;
51612;SDS011;37694;51.748;14.326;2023-08-06T14:15:10;2.72;;;2.53;;
51612;SDS011;37694;51.748;14.326;2023-08-06T14:17:36;2.60;;;2.40;;
51612;SDS011;37694;51.748;14.326;2023-08-06T14:20:02;3.35;;;2.78;;
51612;SDS011;37694;51.748;14.326;2023-08-06T14:22:29;2.45;;;2.28;;
51612;SDS011;37694;51.748;14.326;2023-08-06T14:24:56;2.67;;;2.47;;
51612;SDS011;37694;51.748;14.326;2023-08-06T14:27:25;2.78;;;2.50;;
51612;SDS011;37694;51.748;14.326;2023-08-06T14:29:50;2.40;;;2.30;;
51612;SDS011;37694;51.748;14.326;2023-08-06T14:32:16;2.38;;;2.25;;
51612;SDS011;37694;51.748;14.326;2023-08-06T14:34:43;5.10;;;2.50;;
51612;SDS011;37694;51.748;14.326;2023-08-06T14:37:09;3.67;;;2.65;;
51612;SDS011;37694;51.748;14.326;2023-08-06T14:39:35;2.63;;;2.42;;